Time,TemperatureF,DewpointF,PressureIn,WindDirection,WindDirectionDegrees,WindSpeedMPH,WindSpeedGustMPH,Humidity,HourlyPrecipIn,Conditions,Clouds,dailyrainin,SoftwareType,DateUTC
2013-09-17 00:06:00,47.8,45.0,30.38,North,5,0.0,1.0,90,0.00,,,0.00,weatherlink.com 1.10,2013-09-17 05:06:00,
2013-09-17 00:21:00,47.4,45.0,30.38,North,5,0.0,1.0,90,0.00,,,0.00,weatherlink.com 1.10,2013-09-17 05:21:00,
2013-09-17 00:36:00,47.0,45.0,30.38,North,5,0.0,0.0,91,0.00,,,0.00,weatherlink.com 1.10,2013-09-17 05:36:00,
2013-09-17 00:51:00,46.5,44.0,30.38,North,5,0.0,1.0,92,0.00,,,0.00,weatherlink.com 1.10,2013-09-17 05:51:00,
2013-09-17 01:06:00,45.9,44.0,30.37,North,5,0.0,1.0,93,0.00,,,0.00,weatherlink.com 1.10,2013-09-17 06:06:00,
2013-09-17 01:21:00,45.7,44.0,30.37,North,5,0.0,2.0,93,0.00,,,0.00,weatherlink.com 1.10,2013-09-17 06:21:00,
2013-09-17 01:36:00,45.3,43.0,30.37,North,5,0.0,2.0,93,0.00,,,0.00,weatherlink.com 1.10,2013-09-17 06:36:00,
2013-09-17 01:51:00,45.0,43.0,30.37,North,5,0.0,1.0,93,0.00,,,0.00,weatherlink.com 1.10,2013-09-17 06:51:00,
2013-09-17 02:06:00,44.7,43.0,30.37,North,5,0.0,2.0,94,0.00,,,0.00,weatherlink.com 1.10,2013-09-17 07:06:00,
2013-09-17 02:21:00,44.9,43.0,30.37,North,5,0.0,1.0,94,0.00,,,0.00,weatherlink.com 1.10,2013-09-17 07:21:00,
2013-09-17 02:36:00,44.6,43.0,30.36,North,5,0.0,0.0,94,0.00,,,0.00,weatherlink.com 1.10,2013-09-17 07:36:00,
2013-09-17 02:51:00,44.5,43.0,30.37,North,5,0.0,0.0,94,0.00,,,0.00,weatherlink.com 1.10,2013-09-17 07:51:00,
2013-09-17 03:06:00,43.7,42.0,30.36,North,5,0.0,0.0,94,0.00,,,0.00,weatherlink.com 1.10,2013-09-17 08:06:00,
2013-09-17 03:21:00,43.8,43.0,30.36,North,5,0.0,0.0,95,0.00,,,0.00,weatherlink.com 1.10,2013-09-17 08:21:00,
2013-09-17 03:36:00,44.1,43.0,30.36,North,5,0.0,0.0,95,0.00,,,0.00,weatherlink.com 1.10,2013-09-17 08:36:00,
2013-09-17 03:51:00,44.2,43.0,30.36,North,5,0.0,0.0,95,0.00,,,0.00,weatherlink.com 1.10,2013-09-17 08:51:00,
2013-09-17 04:07:00,44.1,43.0,30.36,North,5,0.0,0.0,95,0.00,,,0.00,weatherlink.com 1.10,2013-09-17 09:07:00,
2013-09-17 04:21:00,44.0,43.0,30.36,North,5,0.0,0.0,95,0.00,,,0.00,weatherlink.com 1.10,2013-09-17 09:21:00,
2013-09-17 04:36:00,44.0,43.0,30.35,North,5,0.0,0.0,95,0.00,,,0.00,weatherlink.com 1.10,2013-09-17 09:36:00,
2013-09-17 04:51:00,44.0,43.0,30.35,North,5,0.0,0.0,96,0.00,,,0.00,weatherlink.com 1.10,2013-09-17 09:51:00,
2013-09-17 05:06:00,44.0,43.0,30.35,North,5,0.0,0.0,95,0.00,,,0.00,weatherlink.com 1.10,2013-09-17 10:06:00,
2013-09-17 05:22:00,44.0,43.0,30.35,North,5,0.0,0.0,96,0.00,,,0.00,weatherlink.com 1.10,2013-09-17 10:22:00,
2013-09-17 05:37:00,44.1,43.0,30.35,North,5,0.0,0.0,96,0.00,,,0.00,weatherlink.com 1.10,2013-09-17 10:37:00,
2013-09-17 05:52:00,44.1,43.0,30.34,North,5,0.0,0.0,96,0.00,,,0.00,weatherlink.com 1.10,2013-09-17 10:52:00,
2013-09-17 06:07:00,44.2,43.0,30.34,North,5,0.0,0.0,96,0.00,,,0.00,weatherlink.com 1.10,2013-09-17 11:07:00,
2013-09-17 06:22:00,44.1,43.0,30.34,North,5,0.0,0.0,96,0.00,,,0.00,weatherlink.com 1.10,2013-09-17 11:22:00,
2013-09-17 06:37:00,44.0,43.0,30.34,North,5,0.0,0.0,96,0.00,,,0.00,weatherlink.com 1.10,2013-09-17 11:37:00,
2013-09-17 06:52:00,43.4,42.0,30.34,North,5,0.0,0.0,96,0.00,,,0.00,weatherlink.com 1.10,2013-09-17 11:52:00,
2013-09-17 07:07:00,43.4,42.0,30.34,North,5,0.0,0.0,96,0.00,,,0.00,weatherlink.com 1.10,2013-09-17 12:07:00,
2013-09-17 07:22:00,44.5,44.0,30.35,North,5,0.0,0.0,97,0.00,,,0.00,weatherlink.com 1.10,2013-09-17 12:22:00,
2013-09-17 07:37:00,46.0,45.0,30.35,ESE,117,0.0,1.0,97,0.00,,,0.00,weatherlink.com 1.10,2013-09-17 12:37:00,
2013-09-17 07:52:00,46.4,46.0,30.35,ESE,111,0.0,2.0,97,0.00,,,0.00,weatherlink.com 1.10,2013-09-17 12:52:00,
2013-09-17 08:07:00,47.2,46.0,30.35,SSE,161,0.0,2.0,97,0.00,,,0.00,weatherlink.com 1.10,2013-09-17 13:07:00,
2013-09-17 08:22:00,47.6,47.0,30.35,SE,144,0.0,2.0,96,0.00,,,0.00,weatherlink.com 1.10,2013-09-17 13:22:00,
2013-09-17 08:37:00,48.6,48.0,30.35,ESE,117,0.0,2.0,96,0.00,,,0.00,weatherlink.com 1.10,2013-09-17 13:37:00,
2013-09-17 08:52:00,50.4,49.0,30.35,SE,136,0.0,1.0,96,0.00,,,0.00,weatherlink.com 1.10,2013-09-17 13:52:00,
2013-09-17 09:07:00,52.2,51.0,30.34,SE,138,0.0,3.0,94,0.00,,,0.00,weatherlink.com 1.10,2013-09-17 14:07:00,
2013-09-17 09:22:00,53.6,52.0,30.34,SE,136,0.0,5.0,93,0.00,,,0.00,weatherlink.com 1.10,2013-09-17 14:22:00,
2013-09-17 09:37:00,55.2,52.0,30.34,SSE,150,3.0,5.0,90,0.00,,,0.00,weatherlink.com 1.10,2013-09-17 14:37:00,
2013-09-17 09:52:00,56.3,53.0,30.34,SE,136,2.0,5.0,87,0.00,,,0.00,weatherlink.com 1.10,2013-09-17 14:52:00,
2013-09-17 10:07:00,57.0,53.0,30.34,SSE,163,1.0,5.0,85,0.00,,,0.00,weatherlink.com 1.10,2013-09-17 15:07:00,
2013-09-17 10:22:00,59.1,54.0,30.34,SSE,153,1.0,6.0,83,0.00,,,0.00,weatherlink.com 1.10,2013-09-17 15:22:00,
2013-09-17 10:37:00,59.9,53.0,30.33,South,181,5.0,6.0,78,0.00,,,0.00,weatherlink.com 1.10,2013-09-17 15:37:00,
2013-09-17 10:52:00,60.3,53.0,30.33,SE,134,2.0,6.0,78,0.00,,,0.00,weatherlink.com 1.10,2013-09-17 15:52:00,
2013-09-17 11:07:00,61.4,53.0,30.32,SSW,197,4.0,5.0,75,0.00,,,0.00,weatherlink.com 1.10,2013-09-17 16:07:00,
2013-09-17 11:22:00,62.2,53.0,30.31,SE,130,0.0,8.0,71,0.00,,,0.00,weatherlink.com 1.10,2013-09-17 16:22:00,
2013-09-17 11:37:00,63.7,54.0,30.31,SE,132,5.0,7.0,70,0.00,,,0.00,weatherlink.com 1.10,2013-09-17 16:37:00,
2013-09-17 11:52:00,63.8,53.0,30.30,SE,141,1.0,7.0,67,0.00,,,0.00,weatherlink.com 1.10,2013-09-17 16:52:00,
2013-09-17 12:08:00,63.7,54.0,30.30,ESE,121,4.0,7.0,70,0.00,,,0.00,weatherlink.com 1.10,2013-09-17 17:08:00,
2013-09-17 12:23:00,64.0,54.0,30.29,SSE,154,4.0,7.0,69,0.00,,,0.00,weatherlink.com 1.10,2013-09-17 17:23:00,
2013-09-17 12:38:00,65.2,54.0,30.29,SE,132,4.0,9.0,68,0.00,,,0.00,weatherlink.com 1.10,2013-09-17 17:38:00,
2013-09-17 12:53:00,65.9,54.0,30.28,SE,140,5.0,10.0,66,0.00,,,0.00,weatherlink.com 1.10,2013-09-17 17:53:00,
2013-09-17 13:08:00,66.3,55.0,30.27,SSE,162,5.0,8.0,66,0.00,,,0.00,weatherlink.com 1.10,2013-09-17 18:08:00,
2013-09-17 13:23:00,66.2,55.0,30.27,SSE,159,4.0,8.0,67,0.00,,,0.00,weatherlink.com 1.10,2013-09-17 18:23:00,
2013-09-17 13:38:00,66.4,55.0,30.26,SSE,157,5.0,8.0,67,0.00,,,0.00,weatherlink.com 1.10,2013-09-17 18:38:00,
2013-09-17 13:53:00,66.6,54.0,30.25,South,174,5.0,8.0,64,0.00,,,0.00,weatherlink.com 1.10,2013-09-17 18:53:00,
2013-09-17 14:08:00,66.2,54.0,30.24,SE,145,4.0,8.0,65,0.00,,,0.00,weatherlink.com 1.10,2013-09-17 19:08:00,
2013-09-17 14:23:00,66.4,54.0,30.23,ESE,121,1.0,7.0,64,0.00,,,0.00,weatherlink.com 1.10,2013-09-17 19:23:00,
2013-09-17 14:38:00,66.1,55.0,30.23,ESE,123,4.0,8.0,67,0.00,,,0.00,weatherlink.com 1.10,2013-09-17 19:38:00,
2013-09-17 14:53:00,66.0,54.0,30.22,South,169,3.0,7.0,66,0.00,,,0.00,weatherlink.com 1.10,2013-09-17 19:53:00,
2013-09-17 15:08:00,66.3,54.0,30.22,South,173,3.0,5.0,65,0.00,,,0.00,weatherlink.com 1.10,2013-09-17 20:08:00,
2013-09-17 15:23:00,66.8,54.0,30.21,South,182,4.0,7.0,64,0.00,,,0.00,weatherlink.com 1.10,2013-09-17 20:23:00,
2013-09-17 15:38:00,67.1,54.0,30.21,SSE,148,4.0,10.0,63,0.00,,,0.00,weatherlink.com 1.10,2013-09-17 20:38:00,
2013-09-17 15:53:00,67.1,54.0,30.20,SSW,205,7.0,7.0,64,0.00,,,0.00,weatherlink.com 1.10,2013-09-17 20:53:00,
2013-09-17 16:08:00,66.5,54.0,30.20,South,177,4.0,6.0,65,0.00,,,0.00,weatherlink.com 1.10,2013-09-17 21:08:00,
2013-09-17 16:23:00,66.5,55.0,30.20,SSE,163,1.0,6.0,67,0.00,,,0.00,weatherlink.com 1.10,2013-09-17 21:23:00,
2013-09-17 16:38:00,66.3,55.0,30.19,SSE,148,3.0,7.0,67,0.00,,,0.00,weatherlink.com 1.10,2013-09-17 21:38:00,
2013-09-17 16:53:00,66.1,55.0,30.19,SSE,147,3.0,6.0,68,0.00,,,0.00,weatherlink.com 1.10,2013-09-17 21:53:00,
2013-09-17 17:08:00,65.5,56.0,30.18,SE,134,1.0,5.0,71,0.00,,,0.00,weatherlink.com 1.10,2013-09-17 22:08:00,
2013-09-17 17:23:00,64.2,57.0,30.18,SE,144,1.0,4.0,77,0.01,,,0.01,weatherlink.com 1.10,2013-09-17 22:23:00,
2013-09-17 17:38:00,63.2,57.0,30.18,SE,136,3.0,4.0,81,0.01,,,0.01,weatherlink.com 1.10,2013-09-17 22:38:00,
2013-09-17 17:53:00,63.2,57.0,30.17,SE,138,1.0,4.0,80,0.01,,,0.01,weatherlink.com 1.10,2013-09-17 22:53:00,
2013-09-17 18:08:00,63.2,57.0,30.17,SE,139,1.0,4.0,81,0.01,,,0.01,weatherlink.com 1.10,2013-09-17 23:08:00,
2013-09-17 18:23:00,62.9,57.0,30.17,SE,133,2.0,4.0,82,0.00,,,0.01,weatherlink.com 1.10,2013-09-17 23:23:00,
2013-09-17 18:38:00,62.8,57.0,30.16,SE,138,3.0,5.0,82,0.00,,,0.01,weatherlink.com 1.10,2013-09-17 23:38:00,
2013-09-17 18:53:00,62.6,57.0,30.16,SE,130,3.0,4.0,82,0.00,,,0.01,weatherlink.com 1.10,2013-09-17 23:53:00,
2013-09-17 19:08:00,62.5,57.0,30.16,SSE,155,3.0,4.0,82,0.00,,,0.01,weatherlink.com 1.10,2013-09-18 00:08:00,
2013-09-17 19:23:00,62.5,57.0,30.15,SE,134,2.0,5.0,82,0.00,,,0.01,weatherlink.com 1.10,2013-09-18 00:23:00,
2013-09-17 19:38:00,62.3,57.0,30.15,SE,135,2.0,4.0,82,0.00,,,0.01,weatherlink.com 1.10,2013-09-18 00:38:00,
2013-09-17 19:53:00,62.0,57.0,30.15,SE,128,2.0,5.0,83,0.00,,,0.01,weatherlink.com 1.10,2013-09-18 00:53:00,
2013-09-17 20:08:00,61.9,57.0,30.15,SE,128,1.0,5.0,83,0.00,,,0.01,weatherlink.com 1.10,2013-09-18 01:08:00,
2013-09-17 20:23:00,62.0,57.0,30.15,SE,130,3.0,5.0,83,0.00,,,0.01,weatherlink.com 1.10,2013-09-18 01:23:00,
2013-09-17 20:38:00,61.8,57.0,30.15,SE,128,3.0,4.0,84,0.00,,,0.01,weatherlink.com 1.10,2013-09-18 01:38:00,
2013-09-17 20:53:00,61.8,57.0,30.15,SE,135,3.0,5.0,83,0.00,,,0.01,weatherlink.com 1.10,2013-09-18 01:53:00,
2013-09-17 21:08:00,61.9,56.0,30.15,SE,128,3.0,4.0,82,0.00,,,0.01,weatherlink.com 1.10,2013-09-18 02:08:00,
2013-09-17 21:23:00,62.0,56.0,30.15,SE,140,3.0,5.0,81,0.00,,,0.01,weatherlink.com 1.10,2013-09-18 02:23:00,
2013-09-17 21:38:00,62.1,56.0,30.14,SE,131,4.0,6.0,81,0.00,,,0.01,weatherlink.com 1.10,2013-09-18 02:38:00,
2013-09-17 21:53:00,62.2,56.0,30.14,SE,132,4.0,5.0,80,0.00,,,0.01,weatherlink.com 1.10,2013-09-18 02:53:00,
2013-09-17 22:08:00,62.5,56.0,30.13,SE,125,4.0,6.0,78,0.00,,,0.01,weatherlink.com 1.10,2013-09-18 03:08:00,
2013-09-17 22:23:00,62.4,55.0,30.13,SE,134,3.0,7.0,78,0.00,,,0.01,weatherlink.com 1.10,2013-09-18 03:23:00,
2013-09-17 22:38:00,62.3,56.0,30.13,SE,134,3.0,5.0,79,0.00,,,0.01,weatherlink.com 1.10,2013-09-18 03:38:00,
2013-09-17 22:53:00,62.1,56.0,30.13,SE,142,3.0,5.0,79,0.00,,,0.01,weatherlink.com 1.10,2013-09-18 03:53:00,
2013-09-17 23:09:00,61.8,56.0,30.13,SSE,159,2.0,3.0,80,0.00,,,0.01,weatherlink.com 1.10,2013-09-18 04:09:00,
2013-09-17 23:24:00,61.6,56.0,30.13,SSE,155,1.0,4.0,81,0.00,,,0.01,weatherlink.com 1.10,2013-09-18 04:24:00,
2013-09-17 23:39:00,61.6,55.0,30.12,SE,134,5.0,5.0,80,0.00,,,0.01,weatherlink.com 1.10,2013-09-18 04:39:00,
2013-09-17 23:54:00,61.7,55.0,30.12,SE,141,1.0,5.0,79,0.00,,,0.01,weatherlink.com 1.10,2013-09-18 04:54:00,